• Join FlightAware (Why Join?)
  • Login
  • US Flag 
01:00AM EDT


 

Airport Tracker/Info


-or-


 

Live Flight TrackerFlight Track Log ✈ AAL1459 ✈ 22-Apr-2013 ✈ KORD - KRNO

Flight Track Log - Related Links

Times and Time Zones

All times are in EDT time to prevent confusion due to time zone crossing. See the AAL1459 flight status page for this flight to view local times or setup timezone preferences in your user account.

Time Position Orientation Groundspeed Altitude Reporting Facility
EDT Latitude Longitude Course Direction KTS MPH feet Rate Location/Type
06:19PM 41.9167 -87.9500 270° West 211 243 3,000  Level Chicago TRACON
06:20PM 41.9667 -88.1875 270° West  Level FlightAware Approximate
06:20PM 41.8667 -88.0167 225° Southwest 251 289 5,800  Level Chicago TRACON
06:20PM 41.8639 -88.0714 266° West 273 314 8,000 3,660 Climbing Chicago Center
06:21PM 41.9667 -88.3312 270° West  Level FlightAware Approximate
06:21PM 41.8833 -88.1000 312° West 261 300 9,500  Level Chicago TRACON
06:21PM 41.8978 -88.1789 284° West 270 311 11,800 1,980 Climbing Chicago Center
06:22PM 41.9667 -88.4750 270° West  Level FlightAware Approximate
06:22PM 41.9272 -88.2811 291° West 294 338 13,100  Level Chicago Center
06:23PM 41.9668 -88.6187 270° West  Level FlightAware Approximate
06:23PM 41.9806 -88.3981 302° West 365 420 15,300  Level Chicago Center
06:24PM 41.9667 -88.7618 270° West  Level FlightAware Approximate
06:24PM 42.0347 -88.5175 301° West 375 432 17,700  Level Chicago Center
06:26PM 42.0856 -88.6428 299° West 385 443 20,200 2,340 Climbing Chicago Center
06:27PM 42.0878 -88.8144 271° West 389 448 22,600 1,800 Climbing Chicago Center
06:28PM 42.0883 -88.9636 270° West 396 456 24,000 1,440 Climbing Chicago Center
06:29PM 42.0883 -89.1181 270° West 410 472 25,600 1,680 Climbing Chicago Center
06:30PM 42.0861 -89.2764 269° West 417 480 27,500 1,500 Climbing Chicago Center
06:31PM 42.0844 -89.4344 269° West 420 483 28,800 1,560 Climbing Chicago Center
06:32PM 42.0850 -89.5953 270° West 427 491 30,800 1,860 Climbing Chicago Center
06:33PM 42.0828 -89.7714 269° West 406 467 32,700 1,500 Climbing Chicago Center
06:34PM 42.0800 -89.9114 269° West 395 455 34,000 600 Climbing Chicago Center
06:35PM 42.0808 -90.0528 271° West 383 441 34,000  Level Chicago Center
06:36PM 42.1031 -90.1897 282° West 378 435 34,000  Level Chicago Center
06:37PM 42.1222 -90.3294 281° West 381 438 34,000  Level Chicago Center
06:38PM 42.1447 -90.4958 280° West 379 436 34,000  Level Chicago Center
06:39PM 42.1653 -90.6353 281° West 381 438 34,000  Level Chicago Center
06:40PM 42.1842 -90.7758 280° West 383 441 34,000  Level Chicago Center
06:41PM 42.2028 -90.9156 280° West 383 441 34,000  Level Chicago Center
06:42PM 42.2214 -91.0581 280° West 388 447 34,000  Level Chicago Center
06:43PM 42.2450 -91.2278 281° West 387 445 34,000  Level Chicago Center
06:44PM 42.2633 -91.3692 280° West 385 443 34,000  Level Chicago Center
06:45PM 42.2822 -91.5114 280° West 387 445 34,000  Level Chicago Center
06:46PM 42.3006 -91.6536 280° West 386 444 34,000  Level Chicago Center
06:47PM 42.3194 -91.7967 280° West 386 444 34,000  Level Chicago Center
06:48PM 42.3372 -91.9403 280° West 388 447 34,000  Level Chicago Center
06:49PM 42.3592 -92.1106 280° West 385 443 34,000  Level Chicago Center
06:50PM 42.3667 -92.1711 280° West 387 445 34,000  Level Minneapolis Center
06:51PM 42.3842 -92.3153 279° West 390 449 34,000  Level Minneapolis Center
06:52PM 42.4047 -92.4861 279° West 387 445 34,000  Level Minneapolis Center
06:53PM 42.4225 -92.6286 280° West 386 444 34,000  Level Minneapolis Center
06:54PM 42.4394 -92.7708 279° West 386 444 34,000  Level Minneapolis Center
06:55PM 42.4569 -92.9106 280° West 382 440 34,000  Level Minneapolis Center
06:56PM 42.4736 -93.0558 279° West 391 450 34,000  Level Minneapolis Center
06:57PM 42.4897 -93.2017 279° West 396 456 34,000  Level Minneapolis Center
06:58PM 42.5072 -93.3475 279° West 396 456 34,000  Level Minneapolis Center
06:59PM 42.5261 -93.5228 278° West 395 455 34,000  Level Minneapolis Center
07:00PM 42.5436 -93.6694 279° West 397 457 34,000  Level Minneapolis Center
07:01PM 42.5636 -93.8142 281° West 395 455 34,000  Level Minneapolis Center
07:02PM 42.6172 -93.9497 298° West 406 467 34,000  Level Minneapolis Center
07:03PM 42.6686 -94.0872 297° West 409 471 34,000  Level Minneapolis Center
07:04PM 42.7194 -94.2228 297° West 406 467 34,000  Level Minneapolis Center
07:05PM 42.7811 -94.3853 297° West 406 467 34,000  Level Minneapolis Center
07:06PM 42.8325 -94.5217 297° West 409 471 34,000  Level Minneapolis Center
07:07PM 42.8781 -94.6419 297° West 405 466 34,000  Level Minneapolis Center
07:08PM 42.9394 -94.8075 297° West 407 468 34,000  Level Minneapolis Center
07:09PM 42.9914 -94.9483 297° West 413 475 34,000  Level Minneapolis Center
07:10PM 43.0439 -95.0881 297° West 415 478 34,000  Level Minneapolis Center
07:11PM 43.0958 -95.2292 297° West 415 478 34,000  Level Minneapolis Center
07:12PM 43.1489 -95.3706 297° West 416 479 34,000  Level Minneapolis Center
07:13PM 43.1997 -95.5153 296° West 420 483 34,000  Level Minneapolis Center
07:15PM 43.2622 -95.6872 297° West 421 484 34,000  Level Minneapolis Center
07:16PM 43.3150 -95.8303 297° West 421 484 34,000  Level Minneapolis Center
07:17PM 43.3650 -95.9733 296° West 416 479 34,000  Level Minneapolis Center
07:18PM 43.4156 -96.1158 296° West 415 478 34,000  Level Minneapolis Center
07:19PM 43.4672 -96.2589 296° West 416 479 34,000  Level Minneapolis Center
07:20PM 43.5167 -96.4028 295° West 415 478 34,000  Level Minneapolis Center
07:21PM 43.5678 -96.5475 296° West 417 480 34,000  Level Minneapolis Center
07:22PM 43.6181 -96.6911 296° West 415 478 34,000  Level Minneapolis Center
07:23PM 43.6567 -96.8700 287° West 403 464 34,000  Level Minneapolis Center
07:24PM 43.6686 -97.0217 276° West 397 457 34,000  Level Minneapolis Center
07:25PM 43.6808 -97.1769 276° West 404 465 34,000  Level Minneapolis Center
07:26PM 43.6925 -97.3336 276° West 408 470 34,000  Level Minneapolis Center
07:27PM 43.7033 -97.4922 275° West 414 476 34,000  Level Minneapolis Center
07:28PM 43.7153 -97.6481 276° West 409 471 34,000  Level Minneapolis Center
07:29PM 43.7261 -97.8042 276° West 409 471 34,000  Level Minneapolis Center
07:30PM 43.7375 -97.9603 276° West 408 470 34,000  Level Minneapolis Center
07:31PM 43.7508 -98.1469 276° West 407 468 34,000  Level Minneapolis Center
07:32PM 43.7606 -98.3014 275° West 404 465 34,000  Level Minneapolis Center
07:33PM 43.7714 -98.4558 276° West 405 466 34,000  Level Minneapolis Center
07:34PM 43.7811 -98.6117 275° West 406 467 34,000  Level Minneapolis Center
07:35PM 43.7886 -98.7297 275° West 407 468 34,000  Level Minneapolis Center
07:36PM 43.8017 -98.9467 275° West 404 465 34,000  Level Minneapolis Center
07:37PM 43.8114 -99.1003 275° West 402 463 34,000  Level Minneapolis Center
07:38PM 43.8203 -99.2553 275° West 402 463 34,000  Level Minneapolis Center
07:39PM 43.8286 -99.4075 274° West 398 458 34,000  Level Minneapolis Center
07:40PM 43.8369 -99.5594 274° West 396 456 34,000  Level Minneapolis Center
07:41PM 43.8450 -99.7111 274° West 395 455 34,000  Level Minneapolis Center
07:42PM 43.8533 -99.8633 274° West 395 455 34,000  Level Minneapolis Center
07:43PM 43.8625 -100.0144 275° West 394 453 34,000  Level Minneapolis Center
07:44PM 43.8689 -100.1636 273° West 391 450 34,000  Level Minneapolis Center
07:45PM 43.8769 -100.3411 274° West 387 445 34,000  Level Minneapolis Center
07:46PM 43.8842 -100.4900 274° West 386 444 34,000  Level Minneapolis Center
07:47PM 43.8922 -100.6419 274° West 390 449 34,000  Level Minneapolis Center
07:48PM 43.8989 -100.7906 274° West 387 445 34,000  Level Minneapolis Center
07:50PM 43.9047 -100.9408 273° West 389 448 34,000  Level Minneapolis Center
07:51PM 43.9119 -101.0931 274° West 393 452 34,000  Level Minneapolis Center
07:52PM 43.9189 -101.2733 273° West 392 451 34,000  Level Minneapolis Center
07:53PM 43.9244 -101.4222 273° West 390 449 34,000  Level Minneapolis Center
07:53PM 43.9272 -101.5111 273° West 386 444 34,000  Level Denver Center
07:54PM 43.9336 -101.6636 273° West 393 452 34,000  Level Denver Center
07:55PM 43.9381 -101.8414 272° West 387 445 34,000  Level Denver Center
07:56PM 43.9417 -101.9922 272° West 388 447 34,000  Level Denver Center
07:58PM 43.9481 -102.1447 273° West 393 452 34,000  Level Denver Center
07:59PM 43.9539 -102.2972 273° West 395 455 34,000  Level Denver Center
08:00PM 43.9594 -102.4503 273° West 396 456 34,000  Level Denver Center
08:01PM 43.9642 -102.6000 273° West 392 451 34,000  Level Denver Center
08:02PM 43.9694 -102.7806 272° West 390 449 34,000  Level Denver Center
08:03PM 43.9750 -102.9303 273° West 391 450 34,000  Level Denver Center
08:04PM 43.9786 -103.0733 272° West 390 449 34,000  Level Denver Center
08:05PM 43.9817 -103.2408 272° West 389 448 34,000  Level Denver Center
08:06PM 43.9825 -103.3833 271° West 387 445 34,000  Level Denver Center
08:07PM 43.9522 -103.5439 255° West 388 447 34,000  Level Denver Center
08:08PM 43.9281 -103.6842 257° West 391 450 34,000  Level Denver Center
08:09PM 43.8967 -103.8431 255° West 386 444 34,000  Level Denver Center
08:10PM 43.8725 -103.9794 256° West 382 440 34,000  Level Denver Center
08:11PM 43.8381 -104.1614 255° West 383 441 34,000  Level Denver Center
08:12PM 43.8083 -104.3203 256° West 384 442 34,000  Level Denver Center
08:13PM 43.7778 -104.4800 255° West 384 442 34,000  Level Denver Center
08:14PM 43.7514 -104.6164 255° West 386 444 34,000  Level Denver Center
08:15PM 43.7200 -104.7761 255° West 386 444 34,000  Level Denver Center
08:16PM 43.6936 -104.9128 255° West 386 444 34,000  Level Denver Center
08:17PM 43.6625 -105.0742 255° West 388 447 34,000  Level Denver Center
08:18PM 43.6344 -105.2103 254° West 388 447 34,000  Level Denver Center
08:20PM 43.6025 -105.3694 255° West 387 445 34,000  Level Denver Center
08:21PM 43.5753 -105.5050 255° West 386 444 34,000  Level Denver Center
08:22PM 43.5469 -105.6425 254° West 389 448 34,000  Level Denver Center
08:23PM 43.5139 -105.8033 254° West 390 449 34,000  Level Denver Center
08:24PM 43.4850 -105.9408 254° West 391 450 34,000  Level Denver Center
08:25PM 43.4517 -106.0997 254° West 389 448 34,000  Level Denver Center
08:26PM 43.4222 -106.2361 253° West 387 445 34,000  Level Denver Center
08:27PM 43.3900 -106.3936 254° West 386 444 34,000  Level Denver Center
08:28PM 43.3608 -106.5272 253° West 383 441 34,000  Level Denver Center
08:29PM 43.3283 -106.6844 254° West 382 440 34,000  Level Denver Center
08:30PM 43.2992 -106.8189 253° West 384 442 34,000  Level Denver Center
08:31PM 43.2778 -106.9114 252° West 384 442 34,000  Level Salt Lake Center
08:32PM 43.2431 -107.0711 253° West 377 434 34,000  Level Salt Lake Center
08:33PM 43.2139 -107.2056 253° West 383 441 34,000  Level Salt Lake Center
08:33PM 43.2042 -107.2525 254° West 388 447 34,000  Level Denver Center
08:34PM 43.1739 -107.3900 253° West 391 450 34,000  Level Denver Center
08:35PM 43.1486 -107.5053 253° West 394 453 34,000  Level Salt Lake Center
08:36PM 43.1175 -107.6433 253° West 396 456 34,000  Level Salt Lake Center
08:37PM 43.0825 -107.8042 253° West 394 453 34,000  Level Salt Lake Center
08:38PM 43.0506 -107.9408 252° West 392 451 34,000  Level Salt Lake Center
08:39PM 43.0189 -108.0783 253° West 396 456 34,000  Level Salt Lake Center
08:40PM 42.9828 -108.2364 253° West 390 449 34,000  Level Salt Lake Center
08:41PM 42.9494 -108.3797 252° West 387 445 34,000  Level Salt Lake Center
08:42PM 42.9197 -108.5133 253° West 386 444 34,000  Level Salt Lake Center
08:43PM 42.8828 -108.6678 252° West 384 442 34,000  Level Salt Lake Center
08:44PM 42.8519 -108.8025 253° West 388 447 34,000  Level Salt Lake Center
08:45PM 42.8150 -108.9575 252° West 388 447 34,000  Level Salt Lake Center
08:46PM 42.7822 -109.0911 252° West 389 448 34,000  Level Salt Lake Center
08:47PM 42.7453 -109.2489 252° West 393 452 34,000  Level Salt Lake Center
08:48PM 42.7125 -109.3836 252° West 393 452 34,000  Level Salt Lake Center
08:49PM 42.6800 -109.5147 251° West 386 444 34,000  Level Salt Lake Center
08:50PM 42.6411 -109.6711 251° West 391 450 34,000  Level Salt Lake Center
08:51PM 42.6086 -109.8044 252° West 389 448 34,000  Level Salt Lake Center
08:52PM 42.5703 -109.9578 251° West 386 444 34,000  Level Salt Lake Center
08:53PM 42.5381 -110.0900 252° West 387 445 34,000  Level Salt Lake Center
08:54PM 42.4992 -110.2425 251° West 385 443 34,000  Level Salt Lake Center
08:55PM 42.4656 -110.3744 251° West 387 445 34,000  Level Salt Lake Center
08:56PM 42.4267 -110.5286 251° West 388 447 34,000  Level Salt Lake Center
08:57PM 42.3931 -110.6614 251° West 391 450 34,000  Level Salt Lake Center
08:58PM 42.3586 -110.7942 251° West 391 450 34,000  Level Salt Lake Center
08:59PM 42.3181 -110.9494 251° West 393 452 34,000  Level Salt Lake Center
09:00PM 42.2831 -111.0828 251° West 389 448 34,000  Level Salt Lake Center
09:01PM 42.2461 -111.2219 250° West 394 453 34,000  Level Salt Lake Center
09:02PM 42.2106 -111.3592 251° West 391 450 34,000  Level Salt Lake Center
09:03PM 42.1739 -111.4975 250° West 393 452 34,000  Level Salt Lake Center
09:04PM 42.1294 -111.6617 250° West 391 450 34,000  Level Salt Lake Center
09:05PM 42.0936 -111.7953 250° West 384 442 34,000  Level Salt Lake Center
09:06PM 42.0581 -111.9311 251° West 386 444 34,000  Level Salt Lake Center
09:07PM 42.0203 -112.0675 250° West 389 448 34,000  Level Salt Lake Center
09:09PM 41.9839 -112.2019 250° West 386 444 34,000  Level Salt Lake Center
09:10PM 41.9475 -112.3356 250° West 384 442 34,000  Level Salt Lake Center
09:11PM 41.9108 -112.4686 250° West 383 441 34,000  Level Salt Lake Center
09:12PM 41.8647 -112.6300 249° West 388 447 34,000  Level Salt Lake Center
09:13PM 41.8278 -112.7636 250° West 386 444 34,000  Level Salt Lake Center
09:14PM 41.7914 -112.8967 250° West 384 442 34,000  Level Salt Lake Center
09:15PM 41.7533 -113.0297 249° West 385 443 34,000  Level Salt Lake Center
09:16PM 41.7158 -113.1653 250° West 388 447 34,000  Level Salt Lake Center
09:17PM 41.6769 -113.2989 249° West 387 445 34,000  Level Salt Lake Center
09:18PM 41.6392 -113.4306 249° West 383 441 34,000  Level Salt Lake Center
09:19PM 41.6011 -113.5633 249° West 384 442 34,000  Level Salt Lake Center
09:20PM 41.5536 -113.7222 248° West 385 443 34,000  Level Salt Lake Center
09:21PM 41.5167 -113.8547 250° West 383 441 34,000  Level Salt Lake Center
09:22PM 41.4778 -113.9872 249° West 385 443 34,000  Level Salt Lake Center
09:23PM 41.4394 -114.1169 249° West 380 437 34,000  Level Salt Lake Center
09:24PM 41.4017 -114.2458 249° West 377 434 34,000  Level Salt Lake Center
09:25PM 41.3639 -114.3744 249° West 374 430 34,000  Level Salt Lake Center
09:26PM 41.3244 -114.5025 248° West 375 432 34,000  Level Salt Lake Center
09:27PM 41.2861 -114.6281 248° West 370 426 34,000  Level Salt Lake Center
09:28PM 41.2414 -114.7800 249° West 368 423 34,000  Level Salt Lake Center
09:29PM 41.2050 -114.9014 248° West 367 422 34,000  Level Salt Lake Center
09:30PM 41.1675 -115.0208 247° West 366 421 34,000  Level Salt Lake Center
09:31PM 41.1250 -115.1592 248° West 363 418 34,000  Level Salt Lake Center
09:32PM 41.0894 -115.2786 248° West 364 419 34,000  Level Salt Lake Center
09:33PM 41.0533 -115.3978 248° West 364 419 34,000  Level Salt Lake Center
09:34PM 41.0100 -115.5364 248° West 365 420 34,000  Level Salt Lake Center
09:35PM 40.9717 -115.6558 247° West 366 421 34,000  Level Salt Lake Center
09:36PM 40.9350 -115.7750 248° West 365 420 34,000  Level Salt Lake Center
09:37PM 40.8917 -115.9147 248° West 367 422 34,000  Level Salt Lake Center
09:38PM 40.8539 -116.0361 248° West 372 428 34,000  Level Salt Lake Center
09:39PM 40.8089 -116.1786 247° West 376 433 34,000  Level Salt Lake Center
09:40PM 40.7686 -116.3019 247° West 380 437 34,000  Level Salt Lake Center
09:41PM 40.7306 -116.4211 247° West 372 428 34,000  Level Salt Lake Center
09:42PM 40.6867 -116.5603 247° West 369 425 34,000  Level Salt Lake Center
09:43PM 40.6475 -116.6808 247° West 373 429 34,000  Level Salt Lake Center
09:44PM 40.6022 -116.8197 247° West 373 429 34,000  Level Salt Lake Center
09:45PM 40.5647 -116.9367 247° West 369 425 34,000  Level Salt Lake Center
09:46PM 40.5292 -117.0761 251° West 365 420 34,000  Level Salt Lake Center
09:47PM 40.4975 -117.1961 251° West 365 420 34,000 -480 Level Salt Lake Center
09:48PM 40.4617 -117.3358 251° West 363 418 33,100 -900 Descending Salt Lake Center
09:49PM 40.4350 -117.4592 254° West 366 421 32,200 -600 Descending Salt Lake Center
09:50PM 40.4033 -117.5831 251° West 372 428 32,000 -420 Descending Salt Lake Center
09:51PM 40.3319 -117.7136 234° Southwest 393 452 31,400 -780 Descending Salt Lake Center
09:52PM 40.2694 -117.8306 235° Southwest 405 466 30,500 -660 Descending Salt Lake Center
09:54PM 40.1961 -117.9669 235° Southwest 410 472 30,000 -600 Descending Oakland Center
09:55PM 40.1286 -118.0878 234° Southwest 413 475 29,300 -540 Descending Oakland Center
09:56PM 40.0625 -118.2097 235° Southwest 410 472 29,000 -180 Descending Oakland Center
09:57PM 39.9828 -118.3539 234° Southwest 410 472 29,000  Level Oakland Center
09:58PM 39.9161 -118.4761 235° Southwest 415 478 29,000  Level Oakland Center
09:59PM 39.8494 -118.5983 235° Southwest 414 476 29,000  Level Oakland Center
10:00PM 39.7817 -118.7194 234° Southwest 418 481 29,000 -480 Level Oakland Center
10:01PM 39.6667 -118.9167 233° Southwest 421 484 27,800 -840 Descending Northern Cal TRACON
10:02PM 39.6453 -118.9611 238° Southwest 418 481 27,500 -1,560 Descending Salt Lake Center
10:03PM 39.5783 -119.0817 234° Southwest 416 479 25,600 -2,220 Descending Oakland Center
10:04PM 39.5114 -119.1992 234° Southwest 410 472 22,800 -3,240 Descending Oakland Center
10:05PM 39.4356 -119.3356 234° Southwest 394 453 19,100 -3,240 Descending Oakland Center
10:06PM 39.3747 -119.4450 234° Southwest 381 438 16,200 -2,940 Descending Oakland Center
10:07PM 39.2950 -119.5236 217° Southwest 376 433 13,100 -2,580 Descending Oakland Center
10:08PM 39.2103 -119.5881 211° Southwest 369 425 11,000 -1,140 Descending Oakland Center
10:09PM 39.1828 -119.6753 248° West 314 361 10,800 -900 Descending Oakland Center
10:10PM 39.2250 -119.7264 317° Northwest 257 296 9,200 -840 Descending Oakland Center
10:11PM 39.2764 -119.7692 327° Northwest 233 268 9,100 -300 Descending Oakland Center
10:12PM 39.3400 -119.7622 North 222 255 8,700 -420 Descending Oakland Center